Check out our new PWSWeather beta!
PWSweather.com
Personal Weather Stations
Station Observations
WD4JKH
Forsyth, GA 31029

Forsyth, GA 31029

Lat: 33.033225, Lon: -83.927995

Elevation: 709

Station Type: Davis Vantage VUE

High Low Average
Temperature 62.3°F16.8°C 39.4°F4.1°C 50.1°F10.1°C
Dew Point 44.7°F7.1°C 32.6°F0.3°C 38.1°F3.4°C
Winds 6.8 mph 10.9 kmh Calm Calm 2.0 mph WNW3.2 kmh WNW
Wind Gusts 13.0 mph20.9 kmh -- 6.0 mph9.7 kmh
Humidity 94% 38% 67%
Pressure 30.26 in1024.7 mb 30.16 in1021.3 mb -
Precipitation 0.00 in0.0 mm - -
Hour Temp Dew Point Humidity Winds Wind Gusts Pressure Precip Precip Rate Daily Precip Total
12:01 AM 44.4°F6.9°C 39.6°F4.2°C 83% Calm Calm 1.0 mph1.6 kmh 30.24 in1024.0 mb 0.00 in0.0 mm 0.00 in0.0 mm 0.00 in0.0 mm
12:06 AM 44.4°F6.9°C 39.6°F4.2°C 83% Calm Calm 1.0 mph1.6 kmh 30.24 in1024.0 mb 0.00 in0.0 mm 0.00 in0.0 mm 0.00 in0.0 mm
12:11 AM 44.3°F6.8°C 39.2°F4.0°C 82% Calm Calm -- 30.23 in1023.7 mb 0.00 in0.0 mm 0.00 in0.0 mm 0.00 in0.0 mm
12:16 AM 44.3°F6.8°C 39.5°F4.2°C 83% 1.0 mph NNW1.6 kmh NNW 1.0 mph1.6 kmh 30.23 in1023.7 mb 0.00 in0.0 mm 0.00 in0.0 mm 0.00 in0.0 mm
12:21 AM 44.3°F6.8°C 39.5°F4.2°C 83% 1.0 mph NW1.6 kmh NW 1.0 mph1.6 kmh 30.24 in1024.0 mb 0.00 in0.0 mm 0.00 in0.0 mm 0.00 in0.0 mm
12:26 AM 44.4°F6.9°C 39.6°F4.2°C 83% Calm Calm 2.0 mph3.2 kmh 30.23 in1023.7 mb 0.00 in0.0 mm 0.00 in0.0 mm 0.00 in0.0 mm
12:31 AM 44.3°F6.8°C 39.5°F4.2°C 83% 1.0 mph NW1.6 kmh NW 2.0 mph3.2 kmh 30.23 in1023.7 mb 0.00 in0.0 mm 0.00 in0.0 mm 0.00 in0.0 mm
12:36 AM 44.2°F6.8°C 39.4°F4.1°C 83% 1.0 mph NW1.6 kmh NW 2.0 mph3.2 kmh 30.23 in1023.7 mb 0.00 in0.0 mm 0.00 in0.0 mm 0.00 in0.0 mm
12:41 AM 44.0°F6.7°C 39.5°F4.2°C 84% Calm Calm 2.0 mph3.2 kmh 30.23 in1023.7 mb 0.00 in0.0 mm 0.00 in0.0 mm 0.00 in0.0 mm
12:46 AM 43.8°F6.6°C 39.3°F4.1°C 84% 1.5 mph NW2.4 kmh NW 2.0 mph3.2 kmh 30.23 in1023.7 mb 0.00 in0.0 mm 0.00 in0.0 mm 0.00 in0.0 mm
12:51 AM 43.6°F6.4°C 39.4°F4.1°C 85% 1.0 mph NW1.6 kmh NW 2.0 mph3.2 kmh 30.23 in1023.7 mb 0.00 in0.0 mm 0.00 in0.0 mm 0.00 in0.0 mm
12:56 AM 43.4°F6.3°C 39.2°F4.0°C 85% 1.0 mph NW1.6 kmh NW 2.0 mph3.2 kmh 30.23 in1023.7 mb 0.00 in0.0 mm 0.00 in0.0 mm 0.00 in0.0 mm
01:01 AM 43.3°F6.3°C 39.1°F3.9°C 85% 1.0 mph NW1.6 kmh NW 2.0 mph3.2 kmh 30.23 in1023.7 mb 0.00 in0.0 mm 0.00 in0.0 mm 0.00 in0.0 mm
01:06 AM 43.2°F6.2°C 39.3°F4.1°C 86% 1.3 mph NW2.1 kmh NW 2.0 mph3.2 kmh 30.23 in1023.7 mb 0.00 in0.0 mm 0.00 in0.0 mm 0.00 in0.0 mm
01:11 AM 43.3°F6.3°C 39.4°F4.1°C 86% 1.3 mph NW2.1 kmh NW 2.0 mph3.2 kmh 30.23 in1023.7 mb 0.00 in0.0 mm 0.00 in0.0 mm 0.00 in0.0 mm
01:16 AM 43.3°F6.3°C 39.4°F4.1°C 86% 1.0 mph NW1.6 kmh NW 2.0 mph3.2 kmh 30.23 in1023.7 mb 0.00 in0.0 mm 0.00 in0.0 mm 0.00 in0.0 mm
01:20 AM 43.2°F6.2°C 39.3°F4.1°C 86% 1.0 mph NW1.6 kmh NW 2.0 mph3.2 kmh 30.23 in1023.7 mb 0.00 in0.0 mm 0.00 in0.0 mm 0.00 in0.0 mm
01:25 AM 43.1°F6.2°C 39.2°F4.0°C 86% 1.0 mph NW1.6 kmh NW 2.0 mph3.2 kmh 30.23 in1023.7 mb 0.00 in0.0 mm 0.00 in0.0 mm 0.00 in0.0 mm
01:30 AM 43.0°F6.1°C 39.1°F3.9°C 86% Calm Calm 1.0 mph1.6 kmh 30.23 in1023.7 mb 0.00 in0.0 mm 0.00 in0.0 mm 0.00 in0.0 mm
01:35 AM 42.8°F6.0°C 38.9°F3.8°C 86% Calm Calm 1.0 mph1.6 kmh 30.23 in1023.7 mb 0.00 in0.0 mm 0.00 in0.0 mm 0.00 in0.0 mm
01:40 AM 42.6°F5.9°C 39.0°F3.9°C 87% 1.1 mph NNW1.8 kmh NNW 2.0 mph3.2 kmh 30.23 in1023.7 mb 0.00 in0.0 mm 0.00 in0.0 mm 0.00 in0.0 mm
01:45 AM 42.7°F5.9°C 39.1°F3.9°C 87% 1.4 mph NNW2.3 kmh NNW 2.0 mph3.2 kmh 30.23 in1023.7 mb 0.00 in0.0 mm 0.00 in0.0 mm 0.00 in0.0 mm
01:50 AM 42.6°F5.9°C 39.0°F3.9°C 87% 1.0 mph NW1.6 kmh NW 2.0 mph3.2 kmh 30.23 in1023.7 mb 0.00 in0.0 mm 0.00 in0.0 mm 0.00 in0.0 mm
01:55 AM 42.5°F5.8°C 38.9°F3.8°C 87% 1.2 mph NW1.9 kmh NW 2.0 mph3.2 kmh 30.23 in1023.7 mb 0.00 in0.0 mm 0.00 in0.0 mm 0.00 in0.0 mm
02:00 AM 42.4°F5.8°C 39.1°F3.9°C 88% 1.3 mph NW2.1 kmh NW 2.0 mph3.2 kmh 30.23 in1023.7 mb 0.00 in0.0 mm 0.00 in0.0 mm 0.00 in0.0 mm
02:05 AM 42.3°F5.7°C 39.0°F3.9°C 88% 1.0 mph NW1.6 kmh NW 2.0 mph3.2 kmh 30.23 in1023.7 mb 0.00 in0.0 mm 0.00 in0.0 mm 0.00 in0.0 mm
02:10 AM 42.2°F5.7°C 38.9°F3.8°C 88% 1.0 mph NNW1.6 kmh NNW 2.0 mph3.2 kmh 30.23 in1023.7 mb 0.00 in0.0 mm 0.00 in0.0 mm 0.00 in0.0 mm
02:15 AM 42.0°F5.6°C 38.7°F3.7°C 88% 1.0 mph NW1.6 kmh NW 2.0 mph3.2 kmh 30.23 in1023.7 mb 0.00 in0.0 mm 0.00 in0.0 mm 0.00 in0.0 mm
02:20 AM 41.9°F5.5°C 38.9°F3.8°C 89% 1.0 mph NW1.6 kmh NW 2.0 mph3.2 kmh 30.22 in1023.4 mb 0.00 in0.0 mm 0.00 in0.0 mm 0.00 in0.0 mm
02:25 AM 41.9°F5.5°C 38.9°F3.8°C 89% 1.3 mph NW2.1 kmh NW 3.0 mph4.8 kmh 30.22 in1023.4 mb 0.00 in0.0 mm 0.00 in0.0 mm 0.00 in0.0 mm
02:30 AM 41.8°F5.4°C 38.8°F3.8°C 89% 1.2 mph NW1.9 kmh NW 3.0 mph4.8 kmh 30.22 in1023.4 mb 0.00 in0.0 mm 0.00 in0.0 mm 0.00 in0.0 mm
02:35 AM 41.7°F5.4°C 39.0°F3.9°C 90% 1.3 mph NW2.1 kmh NW 3.0 mph4.8 kmh 30.22 in1023.4 mb 0.00 in0.0 mm 0.00 in0.0 mm 0.00 in0.0 mm
02:40 AM 41.6°F5.3°C 38.8°F3.8°C 90% 1.3 mph NW2.1 kmh NW 4.0 mph6.4 kmh 30.22 in1023.4 mb 0.00 in0.0 mm 0.00 in0.0 mm 0.00 in0.0 mm
02:45 AM 41.6°F5.3°C 38.8°F3.8°C 90% 1.3 mph NW2.1 kmh NW 4.0 mph6.4 kmh 30.22 in1023.4 mb 0.00 in0.0 mm 0.00 in0.0 mm 0.00 in0.0 mm
02:50 AM 41.5°F5.3°C 38.7°F3.7°C 90% 1.0 mph NNW1.6 kmh NNW 4.0 mph6.4 kmh 30.22 in1023.4 mb 0.00 in0.0 mm 0.00 in0.0 mm 0.00 in0.0 mm
02:55 AM 41.5°F5.3°C 38.7°F3.7°C 90% 1.1 mph NNW1.8 kmh NNW 4.0 mph6.4 kmh 30.22 in1023.4 mb 0.00 in0.0 mm 0.00 in0.0 mm 0.00 in0.0 mm
03:00 AM 41.5°F5.3°C 38.7°F3.7°C 90% 1.1 mph NW1.8 kmh NW 2.0 mph3.2 kmh 30.22 in1023.4 mb 0.00 in0.0 mm 0.00 in0.0 mm 0.00 in0.0 mm
03:05 AM 41.5°F5.3°C 39.0°F3.9°C 91% 1.0 mph NNW1.6 kmh NNW 2.0 mph3.2 kmh 30.22 in1023.4 mb 0.00 in0.0 mm 0.00 in0.0 mm 0.00 in0.0 mm
03:10 AM 41.3°F5.2°C 38.6°F3.7°C 90% Calm Calm 2.0 mph3.2 kmh 30.22 in1023.4 mb 0.00 in0.0 mm 0.00 in0.0 mm 0.00 in0.0 mm
03:15 AM 41.2°F5.1°C 38.7°F3.7°C 91% 1.3 mph NW2.1 kmh NW 2.0 mph3.2 kmh 30.22 in1023.4 mb 0.00 in0.0 mm 0.00 in0.0 mm 0.00 in0.0 mm
03:20 AM 41.0°F5.0°C 38.5°F3.6°C 91% 1.0 mph NW1.6 kmh NW 2.0 mph3.2 kmh 30.22 in1023.4 mb 0.00 in0.0 mm 0.00 in0.0 mm 0.00 in0.0 mm
03:25 AM 40.9°F4.9°C 38.5°F3.6°C 91% 1.1 mph NW1.8 kmh NW 3.0 mph4.8 kmh 30.22 in1023.4 mb 0.00 in0.0 mm 0.00 in0.0 mm 0.00 in0.0 mm
03:30 AM 40.8°F4.9°C 38.4°F3.6°C 91% 1.0 mph NW1.6 kmh NW 3.0 mph4.8 kmh 30.22 in1023.4 mb 0.00 in0.0 mm 0.00 in0.0 mm 0.00 in0.0 mm
03:35 AM 40.7°F4.8°C 38.6°F3.7°C 92% 1.0 mph NW1.6 kmh NW 3.0 mph4.8 kmh 30.22 in1023.4 mb 0.00 in0.0 mm 0.00 in0.0 mm 0.00 in0.0 mm
03:40 AM 40.7°F4.8°C 38.5°F3.6°C 92% 1.1 mph NW1.8 kmh NW 2.0 mph3.2 kmh 30.22 in1023.4 mb 0.00 in0.0 mm 0.00 in0.0 mm 0.00 in0.0 mm
03:45 AM 40.6°F4.8°C 38.4°F3.6°C 92% 1.4 mph NNW2.3 kmh NNW 3.0 mph4.8 kmh 30.22 in1023.4 mb 0.00 in0.0 mm 0.00 in0.0 mm 0.00 in0.0 mm
03:50 AM 40.7°F4.8°C 38.6°F3.7°C 92% 1.0 mph NW1.6 kmh NW 3.0 mph4.8 kmh 30.21 in1023.0 mb 0.00 in0.0 mm 0.00 in0.0 mm 0.00 in0.0 mm
03:55 AM 40.7°F4.8°C 38.5°F3.6°C 92% Calm Calm 3.0 mph4.8 kmh 30.22 in1023.4 mb 0.00 in0.0 mm 0.00 in0.0 mm 0.00 in0.0 mm
04:00 AM 40.6°F4.8°C 38.4°F3.6°C 92% 1.2 mph NW1.9 kmh NW 3.0 mph4.8 kmh 30.21 in1023.0 mb 0.00 in0.0 mm 0.00 in0.0 mm 0.00 in0.0 mm
04:05 AM 40.7°F4.8°C 38.5°F3.6°C 92% 1.9 mph NW3.1 kmh NW 5.0 mph8.0 kmh 30.21 in1023.0 mb 0.00 in0.0 mm 0.00 in0.0 mm 0.00 in0.0 mm
04:10 AM 40.6°F4.8°C 38.5°F3.6°C 92% 1.2 mph NW1.9 kmh NW 5.0 mph8.0 kmh 30.21 in1023.0 mb 0.00 in0.0 mm 0.00 in0.0 mm 0.00 in0.0 mm
04:15 AM 40.7°F4.8°C 38.5°F3.6°C 92% 1.5 mph NW2.4 kmh NW 5.0 mph8.0 kmh 30.21 in1023.0 mb 0.00 in0.0 mm 0.00 in0.0 mm 0.00 in0.0 mm
04:20 AM 40.7°F4.8°C 38.5°F3.6°C 92% 1.7 mph NW2.7 kmh NW 5.0 mph8.0 kmh 30.21 in1023.0 mb 0.00 in0.0 mm 0.00 in0.0 mm 0.00 in0.0 mm
04:25 AM 40.6°F4.8°C 38.4°F3.6°C 92% Calm Calm 5.0 mph8.0 kmh 30.22 in1023.4 mb 0.00 in0.0 mm 0.00 in0.0 mm 0.00 in0.0 mm
04:30 AM 40.6°F4.8°C 38.4°F3.6°C 92% 1.6 mph NW2.6 kmh NW 5.0 mph8.0 kmh 30.22 in1023.4 mb 0.00 in0.0 mm 0.00 in0.0 mm 0.00 in0.0 mm
04:35 AM 40.5°F4.7°C 38.3°F3.5°C 92% Calm Calm 3.0 mph4.8 kmh 30.23 in1023.7 mb 0.00 in0.0 mm 0.00 in0.0 mm 0.00 in0.0 mm
04:40 AM 40.4°F4.7°C 38.2°F3.4°C 92% 1.0 mph NW1.6 kmh NW 3.0 mph4.8 kmh 30.23 in1023.7 mb 0.00 in0.0 mm 0.00 in0.0 mm 0.00 in0.0 mm
04:45 AM 40.4°F4.7°C 38.5°F3.6°C 93% 1.3 mph NW2.1 kmh NW 3.0 mph4.8 kmh 30.22 in1023.4 mb 0.00 in0.0 mm 0.00 in0.0 mm 0.00 in0.0 mm
04:50 AM 40.4°F4.7°C 38.5°F3.6°C 93% Calm Calm 3.0 mph4.8 kmh 30.23 in1023.7 mb 0.00 in0.0 mm 0.00 in0.0 mm 0.00 in0.0 mm
04:55 AM 40.4°F4.7°C 38.5°F3.6°C 93% Calm Calm 2.0 mph3.2 kmh 30.23 in1023.7 mb 0.00 in0.0 mm 0.00 in0.0 mm 0.00 in0.0 mm
05:00 AM 40.3°F4.6°C 38.4°F3.6°C 93% Calm Calm 2.0 mph3.2 kmh 30.23 in1023.7 mb 0.00 in0.0 mm 0.00 in0.0 mm 0.00 in0.0 mm
05:05 AM 40.2°F4.6°C 38.3°F3.5°C 93% Calm Calm -- 30.23 in1023.7 mb 0.00 in0.0 mm 0.00 in0.0 mm 0.00 in0.0 mm
05:10 AM 40.1°F4.5°C 38.2°F3.4°C 93% 1.0 mph NW1.6 kmh NW 1.0 mph1.6 kmh 30.23 in1023.7 mb 0.00 in0.0 mm 0.00 in0.0 mm 0.00 in0.0 mm
05:15 AM 40.0°F4.4°C 38.1°F3.4°C 93% 1.3 mph NW2.1 kmh NW 2.0 mph3.2 kmh 30.23 in1023.7 mb 0.00 in0.0 mm 0.00 in0.0 mm 0.00 in0.0 mm
05:20 AM 39.9°F4.4°C 38.0°F3.3°C 93% Calm Calm 2.0 mph3.2 kmh 30.23 in1023.7 mb 0.00 in0.0 mm 0.00 in0.0 mm 0.00 in0.0 mm
05:25 AM 39.9°F4.4°C 38.0°F3.3°C 93% 1.2 mph NW1.9 kmh NW 2.0 mph3.2 kmh 30.23 in1023.7 mb 0.00 in0.0 mm 0.00 in0.0 mm 0.00 in0.0 mm
05:30 AM 39.9°F4.4°C 38.0°F3.3°C 93% Calm Calm 2.0 mph3.2 kmh 30.23 in1023.7 mb 0.00 in0.0 mm 0.00 in0.0 mm 0.00 in0.0 mm
05:35 AM 39.9°F4.4°C 38.0°F3.3°C 93% Calm Calm 2.0 mph3.2 kmh 30.23 in1023.7 mb 0.00 in0.0 mm 0.00 in0.0 mm 0.00 in0.0 mm
05:40 AM 39.9°F4.4°C 38.0°F3.3°C 93% Calm Calm 2.0 mph3.2 kmh 30.23 in1023.7 mb 0.00 in0.0 mm 0.00 in0.0 mm 0.00 in0.0 mm
05:45 AM 40.0°F4.4°C 38.1°F3.4°C 93% Calm Calm 2.0 mph3.2 kmh 30.23 in1023.7 mb 0.00 in0.0 mm 0.00 in0.0 mm 0.00 in0.0 mm
05:50 AM 39.9°F4.4°C 38.0°F3.3°C 93% Calm Calm 1.0 mph1.6 kmh 30.23 in1023.7 mb 0.00 in0.0 mm 0.00 in0.0 mm 0.00 in0.0 mm
05:55 AM 40.0°F4.4°C 38.1°F3.4°C 93% 1.0 mph W1.6 kmh W 1.0 mph1.6 kmh 30.23 in1023.7 mb 0.00 in0.0 mm 0.00 in0.0 mm 0.00 in0.0 mm
06:00 AM 40.0°F4.4°C 38.1°F3.4°C 93% Calm Calm 1.0 mph1.6 kmh 30.23 in1023.7 mb 0.00 in0.0 mm 0.00 in0.0 mm 0.00 in0.0 mm
06:05 AM 40.1°F4.5°C 38.2°F3.4°C 93% Calm Calm 1.0 mph1.6 kmh 30.23 in1023.7 mb 0.00 in0.0 mm 0.00 in0.0 mm 0.00 in0.0 mm
06:10 AM 40.0°F4.4°C 38.1°F3.4°C 93% Calm Calm 1.0 mph1.6 kmh 30.23 in1023.7 mb 0.00 in0.0 mm 0.00 in0.0 mm 0.00 in0.0 mm
06:15 AM 40.0°F4.4°C 38.1°F3.4°C 93% 1.0 mph NW1.6 kmh NW 1.0 mph1.6 kmh 30.23 in1023.7 mb 0.00 in0.0 mm 0.00 in0.0 mm 0.00 in0.0 mm
06:20 AM 40.1°F4.5°C 38.2°F3.4°C 93% 1.0 mph NW1.6 kmh NW 2.0 mph3.2 kmh 30.24 in1024.0 mb 0.00 in0.0 mm 0.00 in0.0 mm 0.00 in0.0 mm
06:25 AM 40.1°F4.5°C 38.2°F3.4°C 93% 1.3 mph NW2.1 kmh NW 2.0 mph3.2 kmh 30.24 in1024.0 mb 0.00 in0.0 mm 0.00 in0.0 mm 0.00 in0.0 mm
06:30 AM 40.1°F4.5°C 38.2°F3.4°C 93% 1.1 mph NW1.8 kmh NW 2.0 mph3.2 kmh 30.24 in1024.0 mb 0.00 in0.0 mm 0.00 in0.0 mm 0.00 in0.0 mm
06:35 AM 39.9°F4.4°C 38.0°F3.3°C 93% Calm Calm 2.0 mph3.2 kmh 30.24 in1024.0 mb 0.00 in0.0 mm 0.00 in0.0 mm 0.00 in0.0 mm
06:40 AM 39.9°F4.4°C 38.0°F3.3°C 93% 1.0 mph NW1.6 kmh NW 2.0 mph3.2 kmh 30.23 in1023.7 mb 0.00 in0.0 mm 0.00 in0.0 mm 0.00 in0.0 mm
06:45 AM 39.9°F4.4°C 38.0°F3.3°C 93% Calm Calm 2.0 mph3.2 kmh 30.23 in1023.7 mb 0.00 in0.0 mm 0.00 in0.0 mm 0.00 in0.0 mm
06:50 AM 39.8°F4.3°C 37.9°F3.3°C 93% Calm Calm 2.0 mph3.2 kmh 30.23 in1023.7 mb 0.00 in0.0 mm 0.00 in0.0 mm 0.00 in0.0 mm
06:55 AM 39.7°F4.3°C 37.8°F3.2°C 93% Calm Calm 2.0 mph3.2 kmh 30.23 in1023.7 mb 0.00 in0.0 mm 0.00 in0.0 mm 0.00 in0.0 mm
07:00 AM 39.6°F4.2°C 37.7°F3.2°C 93% 1.0 mph NNW1.6 kmh NNW 1.0 mph1.6 kmh 30.23 in1023.7 mb 0.00 in0.0 mm 0.00 in0.0 mm 0.00 in0.0 mm
07:05 AM 39.6°F4.2°C 37.7°F3.2°C 93% Calm Calm 1.0 mph1.6 kmh 30.23 in1023.7 mb 0.00 in0.0 mm 0.00 in0.0 mm 0.00 in0.0 mm
07:10 AM 39.5°F4.2°C 37.6°F3.1°C 93% Calm Calm 1.0 mph1.6 kmh 30.23 in1023.7 mb 0.00 in0.0 mm 0.00 in0.0 mm 0.00 in0.0 mm
07:15 AM 39.4°F4.1°C 37.8°F3.2°C 94% Calm Calm 1.0 mph1.6 kmh 30.23 in1023.7 mb 0.00 in0.0 mm 0.00 in0.0 mm 0.00 in0.0 mm
07:19 AM 39.5°F4.2°C 37.9°F3.3°C 94% Calm Calm 1.0 mph1.6 kmh 30.23 in1023.7 mb 0.00 in0.0 mm 0.00 in0.0 mm 0.00 in0.0 mm
07:24 AM 39.5°F4.2°C 37.9°F3.3°C 94% Calm Calm -- 30.23 in1023.7 mb 0.00 in0.0 mm 0.00 in0.0 mm 0.00 in0.0 mm
07:29 AM 39.5°F4.2°C 37.9°F3.3°C 94% Calm Calm -- 30.23 in1023.7 mb 0.00 in0.0 mm 0.00 in0.0 mm 0.00 in0.0 mm
07:34 AM 39.5°F4.2°C 37.9°F3.3°C 94% Calm Calm -- 30.23 in1023.7 mb 0.00 in0.0 mm 0.00 in0.0 mm 0.00 in0.0 mm
07:39 AM 40.0°F4.4°C 38.4°F3.6°C 94% Calm Calm -- 30.24 in1024.0 mb 0.00 in0.0 mm 0.00 in0.0 mm 0.00 in0.0 mm
07:44 AM 40.5°F4.7°C 38.9°F3.8°C 94% 1.1 mph NW1.8 kmh NW 2.0 mph3.2 kmh 30.23 in1023.7 mb 0.00 in0.0 mm 0.00 in0.0 mm 0.00 in0.0 mm
07:49 AM 40.9°F4.9°C 39.0°F3.9°C 93% Calm Calm 2.0 mph3.2 kmh 30.23 in1023.7 mb 0.00 in0.0 mm 0.00 in0.0 mm 0.00 in0.0 mm
07:54 AM 41.4°F5.2°C 39.5°F4.2°C 93% Calm Calm 2.0 mph3.2 kmh 30.23 in1023.7 mb 0.00 in0.0 mm 0.00 in0.0 mm 0.00 in0.0 mm
07:59 AM 41.8°F5.4°C 39.6°F4.2°C 92% Calm Calm 2.0 mph3.2 kmh 30.24 in1024.0 mb 0.00 in0.0 mm 0.00 in0.0 mm 0.00 in0.0 mm
08:04 AM 42.3°F5.7°C 39.8°F4.3°C 91% Calm Calm 1.0 mph1.6 kmh 30.24 in1024.0 mb 0.00 in0.0 mm 0.00 in0.0 mm 0.00 in0.0 mm
08:09 AM 42.8°F6.0°C 40.3°F4.6°C 91% Calm Calm 1.0 mph1.6 kmh 30.24 in1024.0 mb 0.00 in0.0 mm 0.00 in0.0 mm 0.00 in0.0 mm
08:14 AM 43.3°F6.3°C 40.5°F4.7°C 90% 1.0 mph WNW1.6 kmh WNW 1.0 mph1.6 kmh 30.25 in1024.4 mb 0.00 in0.0 mm 0.00 in0.0 mm 0.00 in0.0 mm
08:19 AM 43.7°F6.5°C 40.7°F4.8°C 89% Calm Calm 1.0 mph1.6 kmh 30.25 in1024.4 mb 0.00 in0.0 mm 0.00 in0.0 mm 0.00 in0.0 mm
08:24 AM 44.2°F6.8°C 41.1°F5.1°C 89% Calm Calm 1.0 mph1.6 kmh 30.25 in1024.4 mb 0.00 in0.0 mm 0.00 in0.0 mm 0.00 in0.0 mm
08:29 AM 44.7°F7.1°C 41.4°F5.2°C 88% Calm Calm 1.0 mph1.6 kmh 30.25 in1024.4 mb 0.00 in0.0 mm 0.00 in0.0 mm 0.00 in0.0 mm
08:34 AM 45.1°F7.3°C 41.4°F5.2°C 87% Calm Calm 1.0 mph1.6 kmh 30.25 in1024.4 mb 0.00 in0.0 mm 0.00 in0.0 mm 0.00 in0.0 mm
08:39 AM 45.3°F7.4°C 41.3°F5.2°C 86% Calm Calm 1.0 mph1.6 kmh 30.25 in1024.4 mb 0.00 in0.0 mm 0.00 in0.0 mm 0.00 in0.0 mm
08:44 AM 45.6°F7.6°C 41.6°F5.3°C 86% Calm Calm 1.0 mph1.6 kmh 30.25 in1024.4 mb 0.00 in0.0 mm 0.00 in0.0 mm 0.00 in0.0 mm
08:49 AM 45.9°F7.7°C 41.6°F5.3°C 85% Calm Calm 1.0 mph1.6 kmh 30.25 in1024.4 mb 0.00 in0.0 mm 0.00 in0.0 mm 0.00 in0.0 mm
08:54 AM 46.0°F7.8°C 41.7°F5.4°C 85% Calm Calm 1.0 mph1.6 kmh 30.26 in1024.7 mb 0.00 in0.0 mm 0.00 in0.0 mm 0.00 in0.0 mm
08:59 AM 46.0°F7.8°C 41.7°F5.4°C 85% 1.0 mph NE1.6 kmh NE 1.0 mph1.6 kmh 30.25 in1024.4 mb 0.00 in0.0 mm 0.00 in0.0 mm 0.00 in0.0 mm
09:04 AM 46.2°F7.9°C 41.6°F5.3°C 84% 1.5 mph NE2.4 kmh NE 3.0 mph4.8 kmh 30.25 in1024.4 mb 0.00 in0.0 mm 0.00 in0.0 mm 0.00 in0.0 mm
09:09 AM 46.7°F8.2°C 42.1°F5.6°C 84% Calm Calm 3.0 mph4.8 kmh 30.25 in1024.4 mb 0.00 in0.0 mm 0.00 in0.0 mm 0.00 in0.0 mm
09:14 AM 47.2°F8.4°C 42.3°F5.7°C 83% Calm Calm 3.0 mph4.8 kmh 30.25 in1024.4 mb 0.00 in0.0 mm 0.00 in0.0 mm 0.00 in0.0 mm
09:19 AM 47.7°F8.7°C 42.5°F5.8°C 82% Calm Calm 3.0 mph4.8 kmh 30.25 in1024.4 mb 0.00 in0.0 mm 0.00 in0.0 mm 0.00 in0.0 mm
09:24 AM 48.2°F9.0°C 43.0°F6.1°C 82% Calm Calm 1.0 mph1.6 kmh 30.25 in1024.4 mb 0.00 in0.0 mm 0.00 in0.0 mm 0.00 in0.0 mm
09:29 AM 48.9°F9.4°C 43.6°F6.4°C 82% Calm Calm 1.0 mph1.6 kmh 30.25 in1024.4 mb 0.00 in0.0 mm 0.00 in0.0 mm 0.00 in0.0 mm
09:34 AM 49.5°F9.7°C 43.6°F6.4°C 80% 1.0 mph WNW1.6 kmh WNW 2.0 mph3.2 kmh 30.25 in1024.4 mb 0.00 in0.0 mm 0.00 in0.0 mm 0.00 in0.0 mm
09:39 AM 49.9°F9.9°C 43.7°F6.5°C 79% Calm Calm 2.0 mph3.2 kmh 30.25 in1024.4 mb 0.00 in0.0 mm 0.00 in0.0 mm 0.00 in0.0 mm
09:44 AM 50.5°F10.3°C 44.3°F6.8°C 79% Calm Calm 2.0 mph3.2 kmh 30.25 in1024.4 mb 0.00 in0.0 mm 0.00 in0.0 mm 0.00 in0.0 mm
09:49 AM 50.8°F10.4°C 43.9°F6.6°C 77% 1.7 mph NE2.7 kmh NE 4.0 mph6.4 kmh 30.25 in1024.4 mb 0.00 in0.0 mm 0.00 in0.0 mm 0.00 in0.0 mm
09:54 AM 51.2°F10.7°C 44.0°F6.7°C 76% 1.0 mph NE1.6 kmh NE 4.0 mph6.4 kmh 30.25 in1024.4 mb 0.00 in0.0 mm 0.00 in0.0 mm 0.00 in0.0 mm
09:59 AM 52.0°F11.1°C 44.7°F7.1°C 76% 1.0 mph WNW1.6 kmh WNW 4.0 mph6.4 kmh 30.25 in1024.4 mb 0.00 in0.0 mm 0.00 in0.0 mm 0.00 in0.0 mm
10:04 AM 52.2°F11.2°C 43.4°F6.3°C 72% 1.2 mph NW1.9 kmh NW 4.0 mph6.4 kmh 30.25 in1024.4 mb 0.00 in0.0 mm 0.00 in0.0 mm 0.00 in0.0 mm
10:09 AM 52.5°F11.4°C 44.5°F6.9°C 74% 1.0 mph NE1.6 kmh NE 3.0 mph4.8 kmh 30.24 in1024.0 mb 0.00 in0.0 mm 0.00 in0.0 mm 0.00 in0.0 mm
10:14 AM 53.0°F11.7°C 43.6°F6.4°C 70% Calm Calm 2.0 mph3.2 kmh 30.24 in1024.0 mb 0.00 in0.0 mm 0.00 in0.0 mm 0.00 in0.0 mm
10:19 AM 53.3°F11.8°C 43.1°F6.2°C 68% 1.5 mph WNW2.4 kmh WNW 4.0 mph6.4 kmh 30.24 in1024.0 mb 0.00 in0.0 mm 0.00 in0.0 mm 0.00 in0.0 mm
10:24 AM 53.7°F12.1°C 43.1°F6.2°C 67% 1.7 mph NW2.7 kmh NW 4.0 mph6.4 kmh 30.24 in1024.0 mb 0.00 in0.0 mm 0.00 in0.0 mm 0.00 in0.0 mm
10:29 AM 53.9°F12.2°C 42.9°F6.1°C 66% 1.5 mph WNW2.4 kmh WNW 4.0 mph6.4 kmh 30.24 in1024.0 mb 0.00 in0.0 mm 0.00 in0.0 mm 0.00 in0.0 mm
10:34 AM 54.1°F12.3°C 43.4°F6.3°C 67% 1.2 mph WSW1.9 kmh WSW 4.0 mph6.4 kmh 30.24 in1024.0 mb 0.00 in0.0 mm 0.00 in0.0 mm 0.00 in0.0 mm
10:39 AM 54.5°F12.5°C 44.3°F6.8°C 68% 1.0 mph NW1.6 kmh NW 3.0 mph4.8 kmh 30.24 in1024.0 mb 0.00 in0.0 mm 0.00 in0.0 mm 0.00 in0.0 mm
10:44 AM 54.7°F12.6°C 43.7°F6.5°C 66% 1.8 mph NE2.9 kmh NE 4.0 mph6.4 kmh 30.23 in1023.7 mb 0.00 in0.0 mm 0.00 in0.0 mm 0.00 in0.0 mm
10:49 AM 55.0°F12.8°C 44.0°F6.7°C 66% 1.0 mph NE1.6 kmh NE 4.0 mph6.4 kmh 30.23 in1023.7 mb 0.00 in0.0 mm 0.00 in0.0 mm 0.00 in0.0 mm
10:54 AM 55.1°F12.8°C 42.4°F5.8°C 62% 2.9 mph W4.7 kmh W 6.0 mph9.7 kmh 30.23 in1023.7 mb 0.00 in0.0 mm 0.00 in0.0 mm 0.00 in0.0 mm
10:59 AM 55.2°F12.9°C 42.5°F5.8°C 62% 2.5 mph NNW4.0 kmh NNW 6.0 mph9.7 kmh 30.23 in1023.7 mb 0.00 in0.0 mm 0.00 in0.0 mm 0.00 in0.0 mm
11:04 AM 55.5°F13.1°C 42.3°F5.7°C 61% 3.4 mph W5.5 kmh W 8.0 mph12.9 kmh 30.23 in1023.7 mb 0.00 in0.0 mm 0.00 in0.0 mm 0.00 in0.0 mm
11:09 AM 55.6°F13.1°C 43.3°F6.3°C 63% 1.5 mph WNW2.4 kmh WNW 8.0 mph12.9 kmh 30.23 in1023.7 mb 0.00 in0.0 mm 0.00 in0.0 mm 0.00 in0.0 mm
11:14 AM 56.0°F13.3°C 43.3°F6.3°C 62% 1.5 mph NNE2.4 kmh NNE 8.0 mph12.9 kmh 30.23 in1023.7 mb 0.00 in0.0 mm 0.00 in0.0 mm 0.00 in0.0 mm
11:19 AM 55.9°F13.3°C 43.2°F6.2°C 62% 2.8 mph WNW4.5 kmh WNW 8.0 mph12.9 kmh 30.23 in1023.7 mb 0.00 in0.0 mm 0.00 in0.0 mm 0.00 in0.0 mm
11:24 AM 56.2°F13.4°C 43.8°F6.6°C 63% 1.3 mph NNW2.1 kmh NNW 6.0 mph9.7 kmh 30.22 in1023.4 mb 0.00 in0.0 mm 0.00 in0.0 mm 0.00 in0.0 mm
11:29 AM 56.6°F13.7°C 43.4°F6.3°C 61% 1.5 mph NW2.4 kmh NW 6.0 mph9.7 kmh 30.22 in1023.4 mb 0.00 in0.0 mm 0.00 in0.0 mm 0.00 in0.0 mm
11:34 AM 56.6°F13.7°C 43.4°F6.3°C 61% 1.9 mph NW3.1 kmh NW 6.0 mph9.7 kmh 30.22 in1023.4 mb 0.00 in0.0 mm 0.00 in0.0 mm 0.00 in0.0 mm
11:39 AM 56.7°F13.7°C 43.1°F6.2°C 60% 2.4 mph NW3.9 kmh NW 6.0 mph9.7 kmh 30.22 in1023.4 mb 0.00 in0.0 mm 0.00 in0.0 mm 0.00 in0.0 mm
11:44 AM 57.0°F13.9°C 42.9°F6.1°C 59% 2.1 mph NNW3.4 kmh NNW 6.0 mph9.7 kmh 30.21 in1023.0 mb 0.00 in0.0 mm 0.00 in0.0 mm 0.00 in0.0 mm
11:49 AM 57.0°F13.9°C 42.4°F5.8°C 58% 1.3 mph WSW2.1 kmh WSW 6.0 mph9.7 kmh 30.21 in1023.0 mb 0.00 in0.0 mm 0.00 in0.0 mm 0.00 in0.0 mm
11:54 AM 57.8°F14.3°C 41.8°F5.4°C 55% 4.9 mph WNW7.9 kmh WNW 9.0 mph14.5 kmh 30.21 in1023.0 mb 0.00 in0.0 mm 0.00 in0.0 mm 0.00 in0.0 mm
11:59 AM 57.7°F14.3°C 40.7°F4.8°C 53% 3.7 mph WNW6.0 kmh WNW 9.0 mph14.5 kmh 30.20 in1022.7 mb 0.00 in0.0 mm 0.00 in0.0 mm 0.00 in0.0 mm
12:04 PM 58.1°F14.5°C 41.6°F5.3°C 54% 3.4 mph NW5.5 kmh NW 9.0 mph14.5 kmh 30.20 in1022.7 mb 0.00 in0.0 mm 0.00 in0.0 mm 0.00 in0.0 mm
12:09 PM 58.2°F14.6°C 41.2°F5.1°C 53% 2.9 mph NW4.7 kmh NW 9.0 mph14.5 kmh 30.20 in1022.7 mb 0.00 in0.0 mm 0.00 in0.0 mm 0.00 in0.0 mm
12:14 PM 58.3°F14.6°C 41.8°F5.4°C 54% 2.3 mph W3.7 kmh W 7.0 mph11.3 kmh 30.20 in1022.7 mb 0.00 in0.0 mm 0.00 in0.0 mm 0.00 in0.0 mm
12:19 PM 58.6°F14.8°C 42.0°F5.6°C 54% 1.9 mph N3.1 kmh N 7.0 mph11.3 kmh 30.20 in1022.7 mb 0.00 in0.0 mm 0.00 in0.0 mm 0.00 in0.0 mm
12:24 PM 58.7°F14.8°C 42.6°F5.9°C 55% 1.7 mph NNW2.7 kmh NNW 7.0 mph11.3 kmh 30.19 in1022.4 mb 0.00 in0.0 mm 0.00 in0.0 mm 0.00 in0.0 mm
12:29 PM 59.0°F15.0°C 42.8°F6.0°C 55% 2.1 mph NW3.4 kmh NW 6.0 mph9.7 kmh 30.19 in1022.4 mb 0.00 in0.0 mm 0.00 in0.0 mm 0.00 in0.0 mm
12:34 PM 59.2°F15.1°C 42.1°F5.6°C 53% 2.2 mph NNW3.5 kmh NNW 6.0 mph9.7 kmh 30.19 in1022.4 mb 0.00 in0.0 mm 0.00 in0.0 mm 0.00 in0.0 mm
12:39 PM 59.3°F15.2°C 42.2°F5.7°C 53% 1.3 mph NW2.1 kmh NW 6.0 mph9.7 kmh 30.19 in1022.4 mb 0.00 in0.0 mm 0.00 in0.0 mm 0.00 in0.0 mm
12:44 PM 59.6°F15.3°C 42.5°F5.8°C 53% 2.0 mph N3.2 kmh N 6.0 mph9.7 kmh 30.19 in1022.4 mb 0.00 in0.0 mm 0.00 in0.0 mm 0.00 in0.0 mm
12:49 PM 59.6°F15.3°C 42.5°F5.8°C 53% 2.6 mph NW4.2 kmh NW 9.0 mph14.5 kmh 30.19 in1022.4 mb 0.00 in0.0 mm 0.00 in0.0 mm 0.00 in0.0 mm
12:54 PM 59.9°F15.5°C 42.3°F5.7°C 52% 2.3 mph WNW3.7 kmh WNW 9.0 mph14.5 kmh 30.18 in1022.0 mb 0.00 in0.0 mm 0.00 in0.0 mm 0.00 in0.0 mm
12:59 PM 60.2°F15.7°C 42.0°F5.6°C 51% 2.4 mph W3.9 kmh W 9.0 mph14.5 kmh 30.18 in1022.0 mb 0.00 in0.0 mm 0.00 in0.0 mm 0.00 in0.0 mm
01:04 PM 60.2°F15.7°C 41.0°F5.0°C 49% 2.8 mph W4.5 kmh W 7.0 mph11.3 kmh 30.18 in1022.0 mb 0.00 in0.0 mm 0.00 in0.0 mm 0.00 in0.0 mm
01:09 PM 60.4°F15.8°C 42.7°F5.9°C 52% 2.0 mph WSW3.2 kmh WSW 7.0 mph11.3 kmh 30.18 in1022.0 mb 0.00 in0.0 mm 0.00 in0.0 mm 0.00 in0.0 mm
01:14 PM 60.5°F15.8°C 39.0°F3.9°C 45% 5.8 mph WNW9.3 kmh WNW 9.0 mph14.5 kmh 30.17 in1021.7 mb 0.00 in0.0 mm 0.00 in0.0 mm 0.00 in0.0 mm
01:18 PM 60.4°F15.8°C 40.1°F4.5°C 47% 4.1 mph W6.6 kmh W 9.0 mph14.5 kmh 30.17 in1021.7 mb 0.00 in0.0 mm 0.00 in0.0 mm 0.00 in0.0 mm
01:23 PM 60.4°F15.8°C 40.6°F4.8°C 48% 1.5 mph WNW2.4 kmh WNW 9.0 mph14.5 kmh 30.17 in1021.7 mb 0.00 in0.0 mm 0.00 in0.0 mm 0.00 in0.0 mm
01:28 PM 61.0°F16.1°C 39.4°F4.1°C 45% 3.6 mph NW5.8 kmh NW 9.0 mph14.5 kmh 30.17 in1021.7 mb 0.00 in0.0 mm 0.00 in0.0 mm 0.00 in0.0 mm
01:33 PM 61.1°F16.2°C 39.5°F4.2°C 45% 2.1 mph NW3.4 kmh NW 8.0 mph12.9 kmh 30.17 in1021.7 mb 0.00 in0.0 mm 0.00 in0.0 mm 0.00 in0.0 mm
01:38 PM 61.1°F16.2°C 38.9°F3.8°C 44% 3.5 mph WNW5.6 kmh WNW 9.0 mph14.5 kmh 30.17 in1021.7 mb 0.00 in0.0 mm 0.00 in0.0 mm 0.00 in0.0 mm
01:43 PM 61.2°F16.2°C 40.2°F4.6°C 46% 3.4 mph WNW5.5 kmh WNW 9.0 mph14.5 kmh 30.17 in1021.7 mb 0.00 in0.0 mm 0.00 in0.0 mm 0.00 in0.0 mm
01:48 PM 61.3°F16.3°C 39.1°F3.9°C 44% 4.6 mph NW7.4 kmh NW 9.0 mph14.5 kmh 30.17 in1021.7 mb 0.00 in0.0 mm 0.00 in0.0 mm 0.00 in0.0 mm
01:53 PM 61.5°F16.4°C 38.7°F3.7°C 43% 2.6 mph NW4.2 kmh NW 9.0 mph14.5 kmh 30.17 in1021.7 mb 0.00 in0.0 mm 0.00 in0.0 mm 0.00 in0.0 mm
01:58 PM 61.4°F16.3°C 37.3°F2.9°C 41% 5.9 mph NW9.5 kmh NW 10.0 mph16.1 kmh 30.17 in1021.7 mb 0.00 in0.0 mm 0.00 in0.0 mm 0.00 in0.0 mm
02:03 PM 61.6°F16.4°C 38.2°F3.4°C 42% 3.7 mph NW6.0 kmh NW 10.0 mph16.1 kmh 30.16 in1021.3 mb 0.00 in0.0 mm 0.00 in0.0 mm 0.00 in0.0 mm
02:08 PM 61.5°F16.4°C 38.7°F3.7°C 43% 2.5 mph NW4.0 kmh NW 10.0 mph16.1 kmh 30.17 in1021.7 mb 0.00 in0.0 mm 0.00 in0.0 mm 0.00 in0.0 mm
02:13 PM 61.8°F16.6°C 37.8°F3.2°C 41% 4.8 mph NW7.7 kmh NW 10.0 mph16.1 kmh 30.17 in1021.7 mb 0.00 in0.0 mm 0.00 in0.0 mm 0.00 in0.0 mm
02:18 PM 61.7°F16.5°C 37.7°F3.2°C 41% 2.7 mph WNW4.3 kmh WNW 10.0 mph16.1 kmh 30.17 in1021.7 mb 0.00 in0.0 mm 0.00 in0.0 mm 0.00 in0.0 mm
02:23 PM 62.0°F16.7°C 37.4°F3.0°C 40% 3.2 mph WNW5.1 kmh WNW 10.0 mph16.1 kmh 30.17 in1021.7 mb 0.00 in0.0 mm 0.00 in0.0 mm 0.00 in0.0 mm
02:28 PM 62.0°F16.7°C 36.7°F2.6°C 39% 4.3 mph NW6.9 kmh NW 10.0 mph16.1 kmh 30.17 in1021.7 mb 0.00 in0.0 mm 0.00 in0.0 mm 0.00 in0.0 mm
02:33 PM 61.9°F16.6°C 36.5°F2.5°C 39% 4.4 mph WNW7.1 kmh WNW 10.0 mph16.1 kmh 30.17 in1021.7 mb 0.00 in0.0 mm 0.00 in0.0 mm 0.00 in0.0 mm
02:38 PM 61.9°F16.6°C 37.2°F2.9°C 40% 2.8 mph WNW4.5 kmh WNW 10.0 mph16.1 kmh 30.17 in1021.7 mb 0.00 in0.0 mm 0.00 in0.0 mm 0.00 in0.0 mm
02:43 PM 62.3°F16.8°C 37.5°F3.1°C 40% 2.8 mph NW4.5 kmh NW 10.0 mph16.1 kmh 30.17 in1021.7 mb 0.00 in0.0 mm 0.00 in0.0 mm 0.00 in0.0 mm
02:48 PM 62.2°F16.8°C 37.4°F3.0°C 40% 2.8 mph NW4.5 kmh NW 10.0 mph16.1 kmh 30.17 in1021.7 mb 0.00 in0.0 mm 0.00 in0.0 mm 0.00 in0.0 mm
02:53 PM 62.2°F16.8°C 37.4°F3.0°C 40% 3.4 mph NW5.5 kmh NW 11.0 mph17.7 kmh 30.17 in1021.7 mb 0.00 in0.0 mm 0.00 in0.0 mm 0.00 in0.0 mm
02:58 PM 62.1°F16.7°C 38.0°F3.3°C 41% 3.5 mph NW5.6 kmh NW 12.0 mph19.3 kmh 30.17 in1021.7 mb 0.00 in0.0 mm 0.00 in0.0 mm 0.00 in0.0 mm
03:03 PM 62.0°F16.7°C 38.5°F3.6°C 42% 3.5 mph NW5.6 kmh NW 12.0 mph19.3 kmh 30.17 in1021.7 mb 0.00 in0.0 mm 0.00 in0.0 mm 0.00 in0.0 mm
03:08 PM 62.1°F16.7°C 37.3°F2.9°C 40% 5.6 mph WNW9.0 kmh WNW 12.0 mph19.3 kmh 30.17 in1021.7 mb 0.00 in0.0 mm 0.00 in0.0 mm 0.00 in0.0 mm
03:13 PM 61.9°F16.6°C 37.8°F3.2°C 41% 6.8 mph NW10.9 kmh NW 12.0 mph19.3 kmh 30.17 in1021.7 mb 0.00 in0.0 mm 0.00 in0.0 mm 0.00 in0.0 mm
03:18 PM 62.0°F16.7°C 39.1°F3.9°C 43% 4.2 mph WNW6.8 kmh WNW 12.0 mph19.3 kmh 30.17 in1021.7 mb 0.00 in0.0 mm 0.00 in0.0 mm 0.00 in0.0 mm
03:23 PM 61.8°F16.6°C 38.3°F3.5°C 42% 3.5 mph NW5.6 kmh NW 12.0 mph19.3 kmh 30.17 in1021.7 mb 0.00 in0.0 mm 0.00 in0.0 mm 0.00 in0.0 mm
03:28 PM 62.0°F16.7°C 38.5°F3.6°C 42% 5.9 mph NW9.5 kmh NW 13.0 mph20.9 kmh 30.17 in1021.7 mb 0.00 in0.0 mm 0.00 in0.0 mm 0.00 in0.0 mm
03:33 PM 62.1°F16.7°C 39.2°F4.0°C 43% 2.7 mph NW4.3 kmh NW 13.0 mph20.9 kmh 30.17 in1021.7 mb 0.00 in0.0 mm 0.00 in0.0 mm 0.00 in0.0 mm
03:38 PM 62.0°F16.7°C 38.5°F3.6°C 42% 5.1 mph NW8.2 kmh NW 13.0 mph20.9 kmh 30.17 in1021.7 mb 0.00 in0.0 mm 0.00 in0.0 mm 0.00 in0.0 mm
03:43 PM 62.0°F16.7°C 38.5°F3.6°C 42% 3.9 mph NNW6.3 kmh NNW 13.0 mph20.9 kmh 30.17 in1021.7 mb 0.00 in0.0 mm 0.00 in0.0 mm 0.00 in0.0 mm
03:48 PM 61.8°F16.6°C 38.3°F3.5°C 42% 2.9 mph NW4.7 kmh NW 9.0 mph14.5 kmh 30.17 in1021.7 mb 0.00 in0.0 mm 0.00 in0.0 mm 0.00 in0.0 mm
03:53 PM 61.8°F16.6°C 39.6°F4.2°C 44% 2.2 mph NNW3.5 kmh NNW 12.0 mph19.3 kmh 30.17 in1021.7 mb 0.00 in0.0 mm 0.00 in0.0 mm 0.00 in0.0 mm
03:58 PM 61.8°F16.6°C 39.1°F3.9°C 43% 3.0 mph WNW4.8 kmh WNW 12.0 mph19.3 kmh 30.17 in1021.7 mb 0.00 in0.0 mm 0.00 in0.0 mm 0.00 in0.0 mm
04:03 PM 61.7°F16.5°C 37.6°F3.1°C 41% 5.0 mph NW8.0 kmh NW 12.0 mph19.3 kmh 30.17 in1021.7 mb 0.00 in0.0 mm 0.00 in0.0 mm 0.00 in0.0 mm
04:08 PM 61.8°F16.6°C 37.1°F2.8°C 40% 2.2 mph NW3.5 kmh NW 12.0 mph19.3 kmh 30.17 in1021.7 mb 0.00 in0.0 mm 0.00 in0.0 mm 0.00 in0.0 mm
04:13 PM 61.6°F16.4°C 35.6°F2.0°C 38% 2.6 mph WNW4.2 kmh WNW 11.0 mph17.7 kmh 30.17 in1021.7 mb 0.00 in0.0 mm 0.00 in0.0 mm 0.00 in0.0 mm
04:18 PM 61.6°F16.4°C 35.6°F2.0°C 38% 2.2 mph NW3.5 kmh NW 11.0 mph17.7 kmh 30.17 in1021.7 mb 0.00 in0.0 mm 0.00 in0.0 mm 0.00 in0.0 mm
04:23 PM 61.5°F16.4°C 36.1°F2.3°C 39% 2.6 mph NNW4.2 kmh NNW 11.0 mph17.7 kmh 30.17 in1021.7 mb 0.00 in0.0 mm 0.00 in0.0 mm 0.00 in0.0 mm
04:28 PM 61.3°F16.3°C 36.0°F2.2°C 39% 3.3 mph NW5.3 kmh NW 11.0 mph17.7 kmh 30.17 in1021.7 mb 0.00 in0.0 mm 0.00 in0.0 mm 0.00 in0.0 mm
04:33 PM 61.1°F16.2°C 35.1°F1.7°C 38% 4.4 mph NNW7.1 kmh NNW 10.0 mph16.1 kmh 30.17 in1021.7 mb 0.00 in0.0 mm 0.00 in0.0 mm 0.00 in0.0 mm
04:38 PM 60.9°F16.1°C 34.9°F1.6°C 38% 2.8 mph NW4.5 kmh NW 10.0 mph16.1 kmh 30.17 in1021.7 mb 0.00 in0.0 mm 0.00 in0.0 mm 0.00 in0.0 mm
04:43 PM 60.9°F16.1°C 35.6°F2.0°C 39% 2.2 mph NW3.5 kmh NW 10.0 mph16.1 kmh 30.17 in1021.7 mb 0.00 in0.0 mm 0.00 in0.0 mm 0.00 in0.0 mm
04:48 PM 60.8°F16.0°C 35.7°F2.1°C 39% 3.0 mph NW4.8 kmh NW 10.0 mph16.1 kmh 30.17 in1021.7 mb 0.00 in0.0 mm 0.00 in0.0 mm 0.00 in0.0 mm
04:54 PM 60.6°F15.9°C 35.3°F1.8°C 39% 3.2 mph N5.1 kmh N 8.0 mph12.9 kmh 30.17 in1021.7 mb 0.00 in0.0 mm 0.00 in0.0 mm 0.00 in0.0 mm
04:58 PM 60.4°F15.8°C 35.1°F1.7°C 39% 2.5 mph NNW4.0 kmh NNW 10.0 mph16.1 kmh 30.17 in1021.7 mb 0.00 in0.0 mm 0.00 in0.0 mm 0.00 in0.0 mm
05:04 PM 60.2°F15.7°C 35.0°F1.7°C 39% 1.5 mph NW2.4 kmh NW 10.0 mph16.1 kmh 30.17 in1021.7 mb 0.00 in0.0 mm 0.00 in0.0 mm 0.00 in0.0 mm
05:08 PM 60.1°F15.6°C 35.5°F1.9°C 40% 1.3 mph NW2.1 kmh NW 10.0 mph16.1 kmh 30.17 in1021.7 mb 0.00 in0.0 mm 0.00 in0.0 mm 0.00 in0.0 mm
05:14 PM 59.8°F15.4°C 34.6°F1.4°C 39% 3.4 mph NW5.5 kmh NW 10.0 mph16.1 kmh 30.17 in1021.7 mb 0.00 in0.0 mm 0.00 in0.0 mm 0.00 in0.0 mm
05:19 PM 59.7°F15.4°C 35.2°F1.8°C 40% 1.6 mph NW2.6 kmh NW 6.0 mph9.7 kmh 30.17 in1021.7 mb 0.00 in0.0 mm 0.00 in0.0 mm 0.00 in0.0 mm
05:24 PM 59.2°F15.1°C 35.4°F1.9°C 41% 1.7 mph NW2.7 kmh NW 6.0 mph9.7 kmh 30.17 in1021.7 mb 0.00 in0.0 mm 0.00 in0.0 mm 0.00 in0.0 mm
05:29 PM 58.7°F14.8°C 35.5°F1.9°C 42% 2.3 mph NW3.7 kmh NW 6.0 mph9.7 kmh 30.17 in1021.7 mb 0.00 in0.0 mm 0.00 in0.0 mm 0.00 in0.0 mm
05:34 PM 58.2°F14.6°C 35.7°F2.1°C 43% 1.4 mph W2.3 kmh W 4.0 mph6.4 kmh 30.17 in1021.7 mb 0.00 in0.0 mm 0.00 in0.0 mm 0.00 in0.0 mm
05:39 PM 57.8°F14.3°C 35.9°F2.2°C 44% 1.9 mph NW3.1 kmh NW 4.0 mph6.4 kmh 30.17 in1021.7 mb 0.00 in0.0 mm 0.00 in0.0 mm 0.00 in0.0 mm
05:44 PM 57.4°F14.1°C 36.1°F2.3°C 45% 1.4 mph N2.3 kmh N 5.0 mph8.0 kmh 30.17 in1021.7 mb 0.00 in0.0 mm 0.00 in0.0 mm 0.00 in0.0 mm
05:49 PM 57.1°F13.9°C 35.3°F1.8°C 44% 2.5 mph NW4.0 kmh NW 6.0 mph9.7 kmh 30.17 in1021.7 mb 0.00 in0.0 mm 0.00 in0.0 mm 0.00 in0.0 mm
05:54 PM 56.8°F13.8°C 35.0°F1.7°C 44% 1.4 mph NW2.3 kmh NW 6.0 mph9.7 kmh 30.17 in1021.7 mb 0.00 in0.0 mm 0.00 in0.0 mm 0.00 in0.0 mm
05:59 PM 56.5°F13.6°C 35.4°F1.9°C 45% 1.9 mph NW3.1 kmh NW 6.0 mph9.7 kmh 30.17 in1021.7 mb 0.00 in0.0 mm 0.00 in0.0 mm 0.00 in0.0 mm
06:04 PM 56.3°F13.5°C 34.6°F1.4°C 44% 2.1 mph NW3.4 kmh NW 6.0 mph9.7 kmh 30.18 in1022.0 mb 0.00 in0.0 mm 0.00 in0.0 mm 0.00 in0.0 mm
06:09 PM 56.0°F13.3°C 34.9°F1.6°C 45% 1.8 mph NW2.9 kmh NW 6.0 mph9.7 kmh 30.18 in1022.0 mb 0.00 in0.0 mm 0.00 in0.0 mm 0.00 in0.0 mm
06:14 PM 55.7°F13.2°C 35.2°F1.8°C 46% 2.2 mph NW3.5 kmh NW 6.0 mph9.7 kmh 30.18 in1022.0 mb 0.00 in0.0 mm 0.00 in0.0 mm 0.00 in0.0 mm
06:19 PM 55.4°F13.0°C 35.4°F1.9°C 47% 2.1 mph NW3.4 kmh NW 6.0 mph9.7 kmh 30.18 in1022.0 mb 0.00 in0.0 mm 0.00 in0.0 mm 0.00 in0.0 mm
06:24 PM 55.3°F12.9°C 34.8°F1.6°C 46% 3.2 mph NW5.1 kmh NW 6.0 mph9.7 kmh 30.18 in1022.0 mb 0.00 in0.0 mm 0.00 in0.0 mm 0.00 in0.0 mm
06:29 PM 55.0°F12.8°C 35.1°F1.7°C 47% 2.3 mph NW3.7 kmh NW 6.0 mph9.7 kmh 30.19 in1022.4 mb 0.00 in0.0 mm 0.00 in0.0 mm 0.00 in0.0 mm
06:34 PM 54.7°F12.6°C 34.8°F1.6°C 47% 3.3 mph NW5.3 kmh NW 9.0 mph14.5 kmh 30.19 in1022.4 mb 0.00 in0.0 mm 0.00 in0.0 mm 0.00 in0.0 mm
06:39 PM 54.5°F12.5°C 34.6°F1.4°C 47% 1.6 mph NW2.6 kmh NW 9.0 mph14.5 kmh 30.19 in1022.4 mb 0.00 in0.0 mm 0.00 in0.0 mm 0.00 in0.0 mm
06:44 PM 54.3°F12.4°C 34.4°F1.3°C 47% 2.2 mph NW3.5 kmh NW 9.0 mph14.5 kmh 30.19 in1022.4 mb 0.00 in0.0 mm 0.00 in0.0 mm 0.00 in0.0 mm
06:49 PM 54.2°F12.3°C 34.3°F1.3°C 47% 4.4 mph NW7.1 kmh NW 9.0 mph14.5 kmh 30.20 in1022.7 mb 0.00 in0.0 mm 0.00 in0.0 mm 0.00 in0.0 mm
06:54 PM 54.2°F12.3°C 34.3°F1.3°C 47% 2.4 mph WNW3.9 kmh WNW 12.0 mph19.3 kmh 30.20 in1022.7 mb 0.00 in0.0 mm 0.00 in0.0 mm 0.00 in0.0 mm
06:59 PM 54.1°F12.3°C 34.2°F1.2°C 47% 3.3 mph NW5.3 kmh NW 12.0 mph19.3 kmh 30.20 in1022.7 mb 0.00 in0.0 mm 0.00 in0.0 mm 0.00 in0.0 mm
07:04 PM 54.0°F12.2°C 34.2°F1.2°C 47% 3.3 mph NW5.3 kmh NW 12.0 mph19.3 kmh 30.20 in1022.7 mb 0.00 in0.0 mm 0.00 in0.0 mm 0.00 in0.0 mm
07:09 PM 54.0°F12.2°C 34.2°F1.2°C 47% 4.2 mph WNW6.8 kmh WNW 9.0 mph14.5 kmh 30.20 in1022.7 mb 0.00 in0.0 mm 0.00 in0.0 mm 0.00 in0.0 mm
07:14 PM 53.7°F12.1°C 34.4°F1.3°C 48% 3.4 mph NW5.5 kmh NW 10.0 mph16.1 kmh 30.20 in1022.7 mb 0.00 in0.0 mm 0.00 in0.0 mm 0.00 in0.0 mm
07:17 PM 53.4°F11.9°C 34.7°F1.5°C 49% 3.6 mph NW5.8 kmh NW 10.0 mph16.1 kmh 30.20 in1022.7 mb 0.00 in0.0 mm 0.00 in0.0 mm 0.00 in0.0 mm
07:22 PM 53.2°F11.8°C 35.0°F1.7°C 50% 2.0 mph W3.2 kmh W 10.0 mph16.1 kmh 30.20 in1022.7 mb 0.00 in0.0 mm 0.00 in0.0 mm 0.00 in0.0 mm
07:27 PM 52.8°F11.6°C 35.2°F1.8°C 51% 3.0 mph WNW4.8 kmh WNW 9.0 mph14.5 kmh 30.20 in1022.7 mb 0.00 in0.0 mm 0.00 in0.0 mm 0.00 in0.0 mm
07:32 PM 52.4°F11.3°C 35.3°F1.8°C 52% 2.0 mph NW3.2 kmh NW 9.0 mph14.5 kmh 30.20 in1022.7 mb 0.00 in0.0 mm 0.00 in0.0 mm 0.00 in0.0 mm
07:37 PM 52.2°F11.2°C 35.6°F2.0°C 53% 3.1 mph WNW5.0 kmh WNW 9.0 mph14.5 kmh 30.20 in1022.7 mb 0.00 in0.0 mm 0.00 in0.0 mm 0.00 in0.0 mm
07:42 PM 51.9°F11.1°C 35.3°F1.8°C 53% 2.8 mph WNW4.5 kmh WNW 9.0 mph14.5 kmh 30.20 in1022.7 mb 0.00 in0.0 mm 0.00 in0.0 mm 0.00 in0.0 mm
07:47 PM 51.8°F11.0°C 35.7°F2.1°C 54% 2.2 mph NW3.5 kmh NW 9.0 mph14.5 kmh 30.20 in1022.7 mb 0.00 in0.0 mm 0.00 in0.0 mm 0.00 in0.0 mm
07:52 PM 51.6°F10.9°C 35.5°F1.9°C 54% 3.0 mph NW4.8 kmh NW 9.0 mph14.5 kmh 30.20 in1022.7 mb 0.00 in0.0 mm 0.00 in0.0 mm 0.00 in0.0 mm
07:57 PM 51.4°F10.8°C 35.8°F2.1°C 55% 2.8 mph WNW4.5 kmh WNW 8.0 mph12.9 kmh 30.21 in1023.0 mb 0.00 in0.0 mm 0.00 in0.0 mm 0.00 in0.0 mm
08:02 PM 51.2°F10.7°C 35.6°F2.0°C 55% 2.6 mph NW4.2 kmh NW 7.0 mph11.3 kmh 30.21 in1023.0 mb 0.00 in0.0 mm 0.00 in0.0 mm 0.00 in0.0 mm
08:07 PM 51.1°F10.6°C 35.5°F1.9°C 55% 2.8 mph NW4.5 kmh NW 7.0 mph11.3 kmh 30.21 in1023.0 mb 0.00 in0.0 mm 0.00 in0.0 mm 0.00 in0.0 mm
08:13 PM 51.1°F10.6°C 35.1°F1.7°C 54% 2.2 mph NW3.5 kmh NW 7.0 mph11.3 kmh 30.21 in1023.0 mb 0.00 in0.0 mm 0.00 in0.0 mm 0.00 in0.0 mm
08:17 PM 51.1°F10.6°C 35.0°F1.7°C 54% 2.4 mph NW3.9 kmh NW 7.0 mph11.3 kmh 30.21 in1023.0 mb 0.00 in0.0 mm 0.00 in0.0 mm 0.00 in0.0 mm
08:23 PM 50.9°F10.5°C 34.9°F1.6°C 54% 2.4 mph NW3.9 kmh NW 7.0 mph11.3 kmh 30.21 in1023.0 mb 0.00 in0.0 mm 0.00 in0.0 mm 0.00 in0.0 mm
08:28 PM 50.8°F10.4°C 34.8°F1.6°C 54% 2.7 mph NW4.3 kmh NW 8.0 mph12.9 kmh 30.21 in1023.0 mb 0.00 in0.0 mm 0.00 in0.0 mm 0.00 in0.0 mm
08:33 PM 50.7°F10.4°C 34.7°F1.5°C 54% 2.3 mph NW3.7 kmh NW 8.0 mph12.9 kmh 30.21 in1023.0 mb 0.00 in0.0 mm 0.00 in0.0 mm 0.00 in0.0 mm
08:38 PM 50.4°F10.2°C 34.4°F1.3°C 54% 2.6 mph NW4.2 kmh NW 8.0 mph12.9 kmh 30.21 in1023.0 mb 0.00 in0.0 mm 0.00 in0.0 mm 0.00 in0.0 mm
08:42 PM 50.4°F10.2°C 34.4°F1.3°C 54% 2.6 mph NW4.2 kmh NW 7.0 mph11.3 kmh 30.21 in1023.0 mb 0.00 in0.0 mm 0.00 in0.0 mm 0.00 in0.0 mm
08:48 PM 50.5°F10.3°C 34.0°F1.1°C 53% 3.7 mph NW6.0 kmh NW 8.0 mph12.9 kmh 30.21 in1023.0 mb 0.00 in0.0 mm 0.00 in0.0 mm 0.00 in0.0 mm
08:53 PM 50.5°F10.3°C 34.0°F1.1°C 53% 3.0 mph NW4.8 kmh NW 10.0 mph16.1 kmh 30.21 in1023.0 mb 0.00 in0.0 mm 0.00 in0.0 mm 0.00 in0.0 mm
08:58 PM 50.4°F10.2°C 33.9°F1.1°C 53% 2.3 mph NNW3.7 kmh NNW 10.0 mph16.1 kmh 30.21 in1023.0 mb 0.00 in0.0 mm 0.00 in0.0 mm 0.00 in0.0 mm
09:03 PM 50.3°F10.2°C 33.8°F1.0°C 53% 3.7 mph NNW6.0 kmh NNW 10.0 mph16.1 kmh 30.20 in1022.7 mb 0.00 in0.0 mm 0.00 in0.0 mm 0.00 in0.0 mm
09:08 PM 50.2°F10.1°C 33.7°F0.9°C 53% 3.2 mph NW5.1 kmh NW 10.0 mph16.1 kmh 30.21 in1023.0 mb 0.00 in0.0 mm 0.00 in0.0 mm 0.00 in0.0 mm
09:13 PM 50.2°F10.1°C 33.7°F0.9°C 53% 2.4 mph NW3.9 kmh NW 9.0 mph14.5 kmh 30.20 in1022.7 mb 0.00 in0.0 mm 0.00 in0.0 mm 0.00 in0.0 mm
09:18 PM 50.1°F10.1°C 33.6°F0.9°C 53% 2.5 mph NW4.0 kmh NW 9.0 mph14.5 kmh 30.20 in1022.7 mb 0.00 in0.0 mm 0.00 in0.0 mm 0.00 in0.0 mm
09:23 PM 50.2°F10.1°C 33.7°F0.9°C 53% 3.6 mph NW5.8 kmh NW 8.0 mph12.9 kmh 30.20 in1022.7 mb 0.00 in0.0 mm 0.00 in0.0 mm 0.00 in0.0 mm
09:28 PM 50.0°F10.0°C 33.5°F0.8°C 53% 2.0 mph NW3.2 kmh NW 8.0 mph12.9 kmh 30.20 in1022.7 mb 0.00 in0.0 mm 0.00 in0.0 mm 0.00 in0.0 mm
09:33 PM 50.0°F10.0°C 33.6°F0.9°C 53% 2.7 mph NW4.3 kmh NW 10.0 mph16.1 kmh 30.21 in1023.0 mb 0.00 in0.0 mm 0.00 in0.0 mm 0.00 in0.0 mm
09:38 PM 49.9°F9.9°C 33.9°F1.1°C 54% 2.2 mph NW3.5 kmh NW 10.0 mph16.1 kmh 30.21 in1023.0 mb 0.00 in0.0 mm 0.00 in0.0 mm 0.00 in0.0 mm
09:43 PM 49.8°F9.9°C 33.4°F0.8°C 53% 4.2 mph NW6.8 kmh NW 10.0 mph16.1 kmh 30.21 in1023.0 mb 0.00 in0.0 mm 0.00 in0.0 mm 0.00 in0.0 mm
09:48 PM 49.8°F9.9°C 33.4°F0.8°C 53% 3.5 mph NW5.6 kmh NW 10.0 mph16.1 kmh 30.21 in1023.0 mb 0.00 in0.0 mm 0.00 in0.0 mm 0.00 in0.0 mm
09:53 PM 49.6°F9.8°C 33.6°F0.9°C 54% 1.7 mph NW2.7 kmh NW 10.0 mph16.1 kmh 30.21 in1023.0 mb 0.00 in0.0 mm 0.00 in0.0 mm 0.00 in0.0 mm
09:58 PM 49.3°F9.6°C 33.4°F0.8°C 54% 3.1 mph NW5.0 kmh NW 10.0 mph16.1 kmh 30.21 in1023.0 mb 0.00 in0.0 mm 0.00 in0.0 mm 0.00 in0.0 mm
10:03 PM 49.2°F9.6°C 33.8°F1.0°C 55% 1.6 mph NW2.6 kmh NW 9.0 mph14.5 kmh 30.21 in1023.0 mb 0.00 in0.0 mm 0.00 in0.0 mm 0.00 in0.0 mm
10:08 PM 49.0°F9.4°C 34.0°F1.1°C 56% 3.3 mph NW5.3 kmh NW 8.0 mph12.9 kmh 30.21 in1023.0 mb 0.00 in0.0 mm 0.00 in0.0 mm 0.00 in0.0 mm
10:13 PM 48.8°F9.3°C 33.8°F1.0°C 56% 1.7 mph NW2.7 kmh NW 8.0 mph12.9 kmh 30.21 in1023.0 mb 0.00 in0.0 mm 0.00 in0.0 mm 0.00 in0.0 mm
10:18 PM 48.4°F9.1°C 33.9°F1.1°C 57% 3.3 mph NW5.3 kmh NW 7.0 mph11.3 kmh 30.21 in1023.0 mb 0.00 in0.0 mm 0.00 in0.0 mm 0.00 in0.0 mm
10:23 PM 48.1°F8.9°C 34.1°F1.2°C 58% 2.5 mph NW4.0 kmh NW 7.0 mph11.3 kmh 30.21 in1023.0 mb 0.00 in0.0 mm 0.00 in0.0 mm 0.00 in0.0 mm
10:28 PM 47.9°F8.8°C 33.9°F1.1°C 58% 2.3 mph NW3.7 kmh NW 7.0 mph11.3 kmh 30.21 in1023.0 mb 0.00 in0.0 mm 0.00 in0.0 mm 0.00 in0.0 mm
10:33 PM 47.9°F8.8°C 33.9°F1.1°C 58% 2.2 mph NW3.5 kmh NW 7.0 mph11.3 kmh 30.21 in1023.0 mb 0.00 in0.0 mm 0.00 in0.0 mm 0.00 in0.0 mm
10:38 PM 47.9°F8.8°C 33.9°F1.1°C 58% 1.3 mph NW2.1 kmh NW 6.0 mph9.7 kmh 30.22 in1023.4 mb 0.00 in0.0 mm 0.00 in0.0 mm 0.00 in0.0 mm
10:43 PM 47.9°F8.8°C 33.5°F0.8°C 57% 2.7 mph NW4.3 kmh NW 6.0 mph9.7 kmh 30.22 in1023.4 mb 0.00 in0.0 mm 0.00 in0.0 mm 0.00 in0.0 mm
10:48 PM 48.1°F8.9°C 33.1°F0.6°C 56% 2.2 mph NNW3.5 kmh NNW 6.0 mph9.7 kmh 30.22 in1023.4 mb 0.00 in0.0 mm 0.00 in0.0 mm 0.00 in0.0 mm
10:53 PM 48.3°F9.1°C 32.9°F0.5°C 55% 2.7 mph N4.3 kmh N 6.0 mph9.7 kmh 30.22 in1023.4 mb 0.00 in0.0 mm 0.00 in0.0 mm 0.00 in0.0 mm
10:58 PM 48.4°F9.1°C 33.0°F0.6°C 55% 2.0 mph NW3.2 kmh NW 6.0 mph9.7 kmh 30.22 in1023.4 mb 0.00 in0.0 mm 0.00 in0.0 mm 0.00 in0.0 mm
11:03 PM 48.4°F9.1°C 33.0°F0.6°C 55% 2.0 mph NW3.2 kmh NW 6.0 mph9.7 kmh 30.21 in1023.0 mb 0.00 in0.0 mm 0.00 in0.0 mm 0.00 in0.0 mm
11:08 PM 48.5°F9.2°C 32.6°F0.3°C 54% 2.3 mph NW3.7 kmh NW 7.0 mph11.3 kmh 30.21 in1023.0 mb 0.00 in0.0 mm 0.00 in0.0 mm 0.00 in0.0 mm
11:13 PM 48.6°F9.2°C 32.7°F0.4°C 54% 1.4 mph N2.3 kmh N 8.0 mph12.9 kmh 30.22 in1023.4 mb 0.00 in0.0 mm 0.00 in0.0 mm 0.00 in0.0 mm
11:18 PM 48.7°F9.3°C 32.8°F0.4°C 54% 2.3 mph NNW3.7 kmh NNW 8.0 mph12.9 kmh 30.22 in1023.4 mb 0.00 in0.0 mm 0.00 in0.0 mm 0.00 in0.0 mm
11:23 PM 48.6°F9.2°C 32.7°F0.4°C 54% 2.2 mph NNW3.5 kmh NNW 8.0 mph12.9 kmh 30.21 in1023.0 mb 0.00 in0.0 mm 0.00 in0.0 mm 0.00 in0.0 mm
11:28 PM 48.7°F9.3°C 32.8°F0.4°C 54% 3.2 mph NW5.1 kmh NW 8.0 mph12.9 kmh 30.22 in1023.4 mb 0.00 in0.0 mm 0.00 in0.0 mm 0.00 in0.0 mm
11:33 PM 48.7°F9.3°C 32.8°F0.4°C 54% 2.0 mph NW3.2 kmh NW 8.0 mph12.9 kmh 30.21 in1023.0 mb 0.00 in0.0 mm 0.00 in0.0 mm 0.00 in0.0 mm
11:38 PM 48.6°F9.2°C 33.2°F0.7°C 55% 1.9 mph NW3.1 kmh NW 11.0 mph17.7 kmh 30.21 in1023.0 mb 0.00 in0.0 mm 0.00 in0.0 mm 0.00 in0.0 mm
11:43 PM 48.5°F9.2°C 33.1°F0.6°C 55% 3.4 mph NW5.5 kmh NW 11.0 mph17.7 kmh 30.21 in1023.0 mb 0.00 in0.0 mm 0.00 in0.0 mm 0.00 in0.0 mm
11:48 PM 48.4°F9.1°C 33.0°F0.6°C 55% 2.3 mph NW3.7 kmh NW 11.0 mph17.7 kmh 30.21 in1023.0 mb 0.00 in0.0 mm 0.00 in0.0 mm 0.00 in0.0 mm
11:53 PM 48.2°F9.0°C 33.7°F0.9°C 57% 1.9 mph WNW3.1 kmh WNW 9.0 mph14.5 kmh 30.21 in1023.0 mb 0.00 in0.0 mm 0.00 in0.0 mm 0.00 in0.0 mm
11:58 PM 48.1°F8.9°C 33.6°F0.9°C 57% 2.8 mph NW4.5 kmh NW 9.0 mph14.5 kmh 30.21 in1023.0 mb 0.00 in0.0 mm 0.00 in0.0 mm 0.00 in0.0 mm